createdAt,value
2018-06-01T00:00:33.039Z,0.00
2018-06-01T00:01:33.068Z,0.00
2018-06-01T00:02:33.099Z,0.00
2018-06-01T00:03:33.129Z,0.00
2018-06-01T00:04:33.173Z,0.00
2018-06-01T00:05:33.189Z,0.00
2018-06-01T00:06:33.219Z,0.00
2018-06-01T00:07:33.247Z,0.00
2018-06-01T00:08:33.278Z,0.00
2018-06-01T00:09:33.309Z,0.00
2018-06-01T00:10:33.334Z,0.00
2018-06-01T00:11:33.367Z,0.00
2018-06-01T00:12:33.394Z,0.00
2018-06-01T00:13:33.420Z,0.00
2018-06-01T00:14:33.453Z,0.00
2018-06-01T00:15:33.493Z,0.00
2018-06-01T00:16:33.514Z,0.00
2018-06-01T00:17:33.539Z,0.00
2018-06-01T00:18:33.579Z,0.00
2018-06-01T00:19:33.598Z,0.00
2018-06-01T00:20:33.627Z,0.00
2018-06-01T00:21:33.661Z,0.00
2018-06-01T00:22:33.702Z,0.00
2018-06-01T00:23:33.721Z,0.00
2018-06-01T00:24:33.748Z,0.00
2018-06-01T00:25:33.773Z,0.00
2018-06-01T00:26:33.808Z,0.00
2018-06-01T00:27:33.834Z,0.00
2018-06-01T00:28:33.862Z,0.00
2018-06-01T00:29:33.895Z,0.00
2018-06-01T00:30:33.923Z,0.00
2018-06-01T00:31:33.952Z,0.00
2018-06-01T00:32:33.978Z,0.00
2018-06-01T00:33:34.009Z,0.00
2018-06-01T00:34:34.043Z,0.00
2018-06-01T00:35:34.068Z,0.00
2018-06-01T00:36:34.098Z,0.00
2018-06-01T00:37:34.128Z,0.00
2018-06-01T00:38:34.162Z,0.00
2018-06-01T00:39:34.185Z,0.00
2018-06-01T00:40:34.213Z,0.00
2018-06-01T00:41:34.242Z,0.00
2018-06-01T00:42:34.274Z,0.00
2018-06-01T00:43:34.303Z,0.00
2018-06-01T00:44:34.333Z,0.00
2018-06-01T00:45:34.358Z,0.00
2018-06-01T00:46:34.393Z,0.00
2018-06-01T00:47:34.432Z,0.00
2018-06-01T00:48:34.451Z,0.00
2018-06-01T00:49:34.482Z,0.00
2018-06-01T00:50:34.510Z,0.00
2018-06-01T00:51:34.541Z,0.00
2018-06-01T00:52:34.566Z,0.00
2018-06-01T00:53:34.594Z,0.00
2018-06-01T00:54:34.622Z,0.00
2018-06-01T00:55:34.653Z,0.00
2018-06-01T00:56:34.685Z,0.00
2018-06-01T00:57:34.707Z,0.00
2018-06-01T00:58:34.737Z,0.00
2018-06-01T00:59:34.771Z,0.00
2018-06-01T01:00:34.799Z,0.00
2018-06-01T01:01:34.831Z,0.00
2018-06-01T01:02:34.857Z,0.00
2018-06-01T01:03:34.892Z,0.00
2018-06-01T01:04:34.916Z,0.00
2018-06-01T01:05:34.946Z,0.00
2018-06-01T01:06:34.975Z,0.00
2018-06-01T01:07:35.001Z,0.00
2018-06-01T01:08:35.032Z,0.00
2018-06-01T01:09:35.070Z,0.00
2018-06-01T01:10:35.091Z,0.00
2018-06-01T01:11:35.117Z,0.00
2018-06-01T01:12:35.152Z,0.00
2018-06-01T01:13:35.179Z,0.00
2018-06-01T01:14:35.207Z,0.00
2018-06-01T01:15:35.237Z,0.00
2018-06-01T01:16:35.263Z,0.00
2018-06-01T01:17:35.293Z,0.00
2018-06-01T01:18:35.323Z,0.00
2018-06-01T01:19:35.353Z,0.00
2018-06-01T01:20:35.382Z,0.00
2018-06-01T01:21:35.407Z,0.00
2018-06-01T01:22:35.435Z,0.00
2018-06-01T01:23:35.469Z,0.00
2018-06-01T01:24:35.490Z,0.00
2018-06-01T01:25:35.522Z,0.00
2018-06-01T01:26:35.555Z,0.00
2018-06-01T01:27:35.579Z,0.00
2018-06-01T01:28:35.610Z,0.00
2018-06-01T01:29:35.643Z,0.00
2018-06-01T01:30:35.674Z,0.00
2018-06-01T01:31:35.698Z,0.00
2018-06-01T01:32:35.724Z,0.00
2018-06-01T01:33:35.755Z,0.00
2018-06-01T01:34:35.785Z,0.00
2018-06-01T01:35:35.819Z,0.00
2018-06-01T01:36:35.843Z,0.00
2018-06-01T01:37:35.870Z,0.00
2018-06-01T01:38:35.907Z,0.00
2018-06-01T01:39:35.934Z,0.00
2018-06-01T01:40:35.957Z,0.00
2018-06-01T01:41:35.988Z,0.00
2018-06-01T01:42:36.015Z,0.00
2018-06-01T01:43:36.044Z,0.00
2018-06-01T01:44:36.069Z,0.00
2018-06-01T01:45:36.104Z,0.00
2018-06-01T01:46:36.129Z,0.00
2018-06-01T01:47:36.162Z,0.00
2018-06-01T01:48:36.194Z,0.00
2018-06-01T01:49:36.214Z,0.00
2018-06-01T01:50:36.250Z,0.00
2018-06-01T01:51:36.274Z,0.00
2018-06-01T01:52:36.303Z,0.00
2018-06-01T01:53:36.329Z,0.00
2018-06-01T01:54:36.365Z,0.00
2018-06-01T01:55:36.391Z,0.00
2018-06-01T01:56:36.421Z,0.00
2018-06-01T01:57:36.449Z,0.00
2018-06-01T01:58:36.474Z,0.00
2018-06-01T01:59:36.511Z,0.00
2018-06-01T02:00:36.535Z,0.00
2018-06-01T02:01:36.565Z,0.00
2018-06-01T02:02:36.594Z,0.00
2018-06-01T02:03:36.620Z,0.00
2018-06-01T02:04:36.652Z,0.00
2018-06-01T02:05:36.680Z,0.00
2018-06-01T02:06:36.704Z,0.00
2018-06-01T02:07:36.735Z,0.00
2018-06-01T02:08:36.764Z,0.00
2018-06-01T02:09:36.795Z,0.00
2018-06-01T02:10:36.820Z,0.00
2018-06-01T02:11:36.850Z,0.00
2018-06-01T02:12:36.883Z,0.00
2018-06-01T02:13:36.911Z,0.00
2018-06-01T02:14:36.947Z,0.00
2018-06-01T02:15:36.964Z,0.00
2018-06-01T02:16:36.995Z,0.00
2018-06-01T02:17:37.024Z,0.00
2018-06-01T02:18:37.049Z,0.00
2018-06-01T02:19:37.083Z,0.00
2018-06-01T02:20:37.107Z,0.00
2018-06-01T02:21:37.134Z,0.00
2018-06-01T02:22:37.164Z,0.00
2018-06-01T02:23:37.194Z,0.00
2018-06-01T02:24:37.223Z,0.00
2018-06-01T02:25:37.253Z,0.00
2018-06-01T02:26:37.279Z,0.00
2018-06-01T02:27:37.309Z,0.00
2018-06-01T02:28:37.340Z,0.00
2018-06-01T02:29:37.369Z,0.00
2018-06-01T02:30:37.393Z,0.00
2018-06-01T02:31:37.430Z,0.00
2018-06-01T02:32:37.456Z,0.00
2018-06-01T02:33:37.492Z,0.00
2018-06-01T02:34:37.509Z,0.00
2018-06-01T02:35:37.539Z,0.00
2018-06-01T02:36:37.575Z,0.00
2018-06-01T02:37:37.605Z,0.00
2018-06-01T02:38:37.629Z,0.00
2018-06-01T02:39:37.661Z,0.00
2018-06-01T02:40:37.683Z,0.00
2018-06-01T02:41:37.716Z,0.00
2018-06-01T02:42:37.744Z,5.63
2018-06-01T02:43:37.769Z,5.63
2018-06-01T02:44:37.799Z,5.63
2018-06-01T02:45:37.822Z,5.63
2018-06-01T02:46:37.852Z,5.63
2018-06-01T02:47:37.885Z,5.63
2018-06-01T02:48:37.911Z,5.63
2018-06-01T02:49:37.942Z,5.63
2018-06-01T02:50:37.976Z,5.63
2018-06-01T02:51:38.002Z,5.63
2018-06-01T02:52:38.023Z,5.63
2018-06-01T02:53:38.053Z,11.25
2018-06-01T02:54:38.082Z,11.25
2018-06-01T02:55:38.113Z,11.25
2018-06-01T02:56:38.146Z,11.25
2018-06-01T02:57:38.172Z,11.25
2018-06-01T02:58:38.198Z,11.25
2018-06-01T02:59:38.233Z,11.25
2018-06-01T03:00:38.259Z,11.25
2018-06-01T03:01:38.287Z,16.88
2018-06-01T03:02:38.316Z,16.88
2018-06-01T03:03:38.343Z,16.88
2018-06-01T03:04:38.372Z,16.88
2018-06-01T03:05:38.401Z,16.88
2018-06-01T03:06:38.429Z,22.50
2018-06-01T03:07:38.453Z,22.50
2018-06-01T03:08:38.482Z,22.50
2018-06-01T03:09:38.513Z,22.50
2018-06-01T03:10:38.540Z,28.13
2018-06-01T03:11:38.569Z,28.13
2018-06-01T03:12:38.601Z,28.13
2018-06-01T03:13:38.627Z,33.75
2018-06-01T03:14:38.658Z,33.75
2018-06-01T03:15:38.687Z,33.75
2018-06-01T03:16:38.711Z,39.38
2018-06-01T03:17:38.749Z,39.38
2018-06-01T03:18:38.767Z,39.38
2018-06-01T03:19:38.797Z,39.38
2018-06-01T03:20:38.828Z,45.00
2018-06-01T03:21:38.858Z,45.00
2018-06-01T03:22:38.881Z,45.00
2018-06-01T03:23:38.911Z,50.63
2018-06-01T03:24:38.941Z,50.63
2018-06-01T03:25:38.967Z,50.63
2018-06-01T03:26:38.996Z,50.63
2018-06-01T03:27:39.027Z,56.25
2018-06-01T03:28:39.050Z,56.25
2018-06-01T03:29:39.082Z,56.25
2018-06-01T03:30:39.111Z,56.25
2018-06-01T03:31:39.146Z,61.88
2018-06-01T03:32:39.167Z,61.88
2018-06-01T03:33:39.200Z,61.88
2018-06-01T03:34:39.226Z,67.50
2018-06-01T03:35:39.251Z,67.50
2018-06-01T03:36:39.285Z,67.50
2018-06-01T03:37:39.315Z,73.13
2018-06-01T03:38:39.341Z,73.13
2018-06-01T03:39:39.370Z,73.13
2018-06-01T03:40:39.400Z,73.13
2018-06-01T03:41:39.430Z,78.75
2018-06-01T03:42:39.452Z,78.75
2018-06-01T03:43:39.480Z,78.75
2018-06-01T03:44:39.511Z,84.38
2018-06-01T03:45:39.536Z,84.38
2018-06-01T03:46:39.567Z,84.38
2018-06-01T03:47:39.595Z,90.00
2018-06-01T03:48:39.625Z,90.00
2018-06-01T03:49:39.653Z,90.00
2018-06-01T03:50:39.679Z,90.00
2018-06-01T03:51:39.714Z,95.63
2018-06-01T03:52:39.749Z,95.63
2018-06-01T03:53:39.767Z,95.63
2018-06-01T03:54:39.799Z,95.63
2018-06-01T03:55:39.826Z,95.63
2018-06-01T03:56:39.850Z,101.25
2018-06-01T03:57:39.884Z,101.25
2018-06-01T03:58:39.911Z,101.25
2018-06-01T03:59:39.940Z,101.25
2018-06-01T04:00:39.965Z,101.25
2018-06-01T04:01:39.995Z,106.88
2018-06-01T04:02:40.027Z,106.88
2018-06-01T04:03:40.055Z,106.88
2018-06-01T04:04:40.085Z,106.88
2018-06-01T04:05:40.110Z,106.88
2018-06-01T04:06:40.140Z,106.88
2018-06-01T04:07:40.170Z,112.50
2018-06-01T04:08:40.196Z,112.50
2018-06-01T04:09:40.226Z,112.50
2018-06-01T04:10:40.251Z,118.13
2018-06-01T04:11:40.286Z,112.50
2018-06-01T04:12:40.313Z,118.13
2018-06-01T04:13:40.339Z,118.13
2018-06-01T04:14:40.369Z,118.13
2018-06-01T04:15:40.396Z,123.75
2018-06-01T04:16:40.425Z,123.75
2018-06-01T04:17:40.455Z,123.75
2018-06-01T04:18:40.486Z,129.38
2018-06-01T04:19:40.510Z,129.38
2018-06-01T04:20:40.539Z,129.38
2018-06-01T04:21:40.569Z,129.38
2018-06-01T04:22:40.596Z,129.38
2018-06-01T04:23:40.627Z,129.38
2018-06-01T04:24:40.650Z,129.38
2018-06-01T04:25:40.679Z,129.38
2018-06-01T04:26:40.709Z,129.38
2018-06-01T04:27:40.791Z,135.00
2018-06-01T04:28:40.769Z,135.00
2018-06-01T04:29:40.805Z,135.00
2018-06-01T04:30:40.830Z,140.63
2018-06-01T04:31:40.854Z,140.63
2018-06-01T04:32:40.879Z,140.63
2018-06-01T04:33:40.908Z,146.25
2018-06-01T04:34:40.939Z,151.88
2018-06-01T04:35:40.973Z,151.88
2018-06-01T04:36:40.995Z,151.88
2018-06-01T04:37:41.029Z,157.50
2018-06-01T04:38:41.055Z,157.50
2018-06-01T04:39:41.084Z,168.75
2018-06-01T04:40:41.113Z,168.75
2018-06-01T04:41:41.143Z,168.75
2018-06-01T04:42:41.170Z,168.75
2018-06-01T04:43:41.200Z,174.38
2018-06-01T04:44:41.225Z,174.38
2018-06-01T04:45:41.254Z,174.38
2018-06-01T04:46:41.284Z,180.00
2018-06-01T04:47:41.309Z,180.00
2018-06-01T04:48:41.344Z,180.00
2018-06-01T04:49:41.371Z,180.00
2018-06-01T04:50:41.399Z,180.00
2018-06-01T04:51:41.424Z,185.63
2018-06-01T04:52:41.457Z,185.63
2018-06-01T04:53:41.484Z,191.25
2018-06-01T04:54:41.509Z,191.25
2018-06-01T04:55:41.539Z,191.25
2018-06-01T04:56:41.568Z,196.88
2018-06-01T04:57:41.598Z,196.88
2018-06-01T04:58:41.630Z,196.88
2018-06-01T04:59:41.657Z,196.88
2018-06-01T05:00:41.683Z,196.88
2018-06-01T05:01:41.716Z,196.88
2018-06-01T05:02:41.742Z,196.88
2018-06-01T05:03:41.768Z,202.50
2018-06-01T05:04:41.799Z,202.50
2018-06-01T05:05:41.829Z,208.13
2018-06-01T05:06:41.858Z,208.13
2018-06-01T05:07:41.884Z,213.75
2018-06-01T05:08:41.917Z,213.75
2018-06-01T05:09:41.943Z,213.75
2018-06-01T05:10:41.973Z,219.38
2018-06-01T05:11:41.998Z,219.38
2018-06-01T05:12:42.027Z,225.00
2018-06-01T05:13:42.053Z,225.00
2018-06-01T05:14:42.083Z,225.00
2018-06-01T05:15:42.113Z,230.63
2018-06-01T05:16:42.208Z,230.63
2018-06-01T05:17:42.167Z,230.63
2018-06-01T05:18:42.200Z,236.25
2018-06-01T05:19:42.228Z,236.25
2018-06-01T05:20:42.257Z,236.25
2018-06-01T05:21:42.286Z,241.88
2018-06-01T05:22:42.315Z,241.88
2018-06-01T05:23:42.344Z,247.50
2018-06-01T05:24:42.370Z,247.50
2018-06-01T05:25:42.398Z,247.50
2018-06-01T05:26:42.430Z,253.13
2018-06-01T05:27:42.457Z,253.13
2018-06-01T05:28:42.488Z,258.75
2018-06-01T05:29:42.514Z,258.75
2018-06-01T05:30:42.547Z,258.75
2018-06-01T05:31:42.577Z,258.75
2018-06-01T05:32:42.606Z,264.38
2018-06-01T05:33:42.632Z,264.38
2018-06-01T05:34:42.661Z,264.38
2018-06-01T05:35:42.691Z,270.00
2018-06-01T05:36:42.718Z,270.00
2018-06-01T05:37:42.746Z,270.00
2018-06-01T05:38:42.771Z,275.63
2018-06-01T05:39:42.802Z,275.63
2018-06-01T05:40:42.831Z,275.63
2018-06-01T05:41:42.860Z,275.63
2018-06-01T05:42:42.886Z,281.25
2018-06-01T05:43:42.920Z,275.63
2018-06-01T05:44:42.943Z,281.25
2018-06-01T05:45:42.976Z,281.25
2018-06-01T05:46:43.006Z,286.88
2018-06-01T05:47:43.033Z,286.88
2018-06-01T05:48:43.066Z,286.88
2018-06-01T05:49:43.090Z,286.88
2018-06-01T05:50:43.116Z,292.50
2018-06-01T05:51:43.146Z,292.50
2018-06-01T05:52:43.176Z,292.50
2018-06-01T05:53:43.203Z,298.13
2018-06-01T05:54:43.241Z,298.13
2018-06-01T05:55:43.265Z,298.13
2018-06-01T05:56:43.290Z,298.13
2018-06-01T05:57:43.322Z,303.75
2018-06-01T05:58:43.352Z,303.75
2018-06-01T05:59:43.382Z,303.75
2018-06-01T06:00:43.411Z,309.38
2018-06-01T06:01:43.439Z,309.38
2018-06-01T06:02:43.465Z,309.38
2018-06-01T06:03:43.494Z,309.38
2018-06-01T06:04:43.521Z,315.00
2018-06-01T06:05:43.557Z,315.00
2018-06-01T06:06:43.580Z,315.00
2018-06-01T06:07:43.611Z,315.00
2018-06-01T06:08:43.641Z,320.63
2018-06-01T06:09:43.674Z,320.63
2018-06-01T06:10:43.696Z,320.63
2018-06-01T06:11:43.731Z,326.25
2018-06-01T06:12:43.761Z,326.25
2018-06-01T06:13:43.786Z,326.25
2018-06-01T06:14:43.817Z,326.25
2018-06-01T06:15:43.845Z,326.25
2018-06-01T06:16:43.877Z,331.88
2018-06-01T06:17:43.908Z,331.88
2018-06-01T06:18:43.959Z,331.88
2018-06-01T06:19:43.961Z,331.88
2018-06-01T06:20:43.993Z,331.88
2018-06-01T06:21:44.019Z,331.88
2018-06-01T06:22:44.054Z,331.88
2018-06-01T06:23:44.079Z,331.88
2018-06-01T06:24:44.115Z,331.88
2018-06-01T06:25:44.160Z,343.13
2018-06-01T06:26:44.164Z,337.50
2018-06-01T06:27:44.195Z,331.88
2018-06-01T06:28:44.220Z,337.50
2018-06-01T06:29:44.250Z,337.50
2018-06-01T06:30:44.282Z,337.50
2018-06-01T06:31:44.312Z,337.50
2018-06-01T06:32:44.340Z,337.50
2018-06-01T06:33:44.363Z,337.50
2018-06-01T06:34:44.404Z,343.13
2018-06-01T06:35:44.423Z,343.13
2018-06-01T06:36:44.453Z,343.13
2018-06-01T06:37:44.549Z,343.13
2018-06-01T06:38:44.513Z,343.13
2018-06-01T06:39:44.548Z,348.75
2018-06-01T06:40:44.574Z,343.13
2018-06-01T06:41:44.601Z,348.75
2018-06-01T06:42:44.634Z,348.75
2018-06-01T06:43:44.663Z,348.75
2018-06-01T06:44:44.690Z,348.75
2018-06-01T06:45:44.721Z,354.38
2018-06-01T06:46:44.750Z,354.38
2018-06-01T06:47:44.781Z,354.38
2018-06-01T06:48:44.803Z,354.38
2018-06-01T06:49:44.843Z,354.38
2018-06-01T06:50:44.863Z,360.00
2018-06-01T06:51:44.900Z,354.38
2018-06-01T06:52:44.924Z,354.38
2018-06-01T06:53:44.954Z,348.75
2018-06-01T06:54:44.984Z,348.75
2018-06-01T06:55:45.013Z,354.38
2018-06-01T06:56:45.044Z,354.38
2018-06-01T06:57:45.107Z,348.75
2018-06-01T06:58:45.129Z,348.75
2018-06-01T06:59:45.131Z,348.75
2018-06-01T07:00:45.166Z,354.38
2018-06-01T07:01:45.189Z,348.75
2018-06-01T07:02:45.266Z,348.75
2018-06-01T07:03:45.249Z,348.75
2018-06-01T07:04:45.278Z,348.75
2018-06-01T07:05:45.310Z,348.75
2018-06-01T07:06:45.339Z,348.75
2018-06-01T07:07:45.369Z,348.75
2018-06-01T07:08:45.394Z,348.75
2018-06-01T07:09:45.423Z,348.75
2018-06-01T07:10:45.468Z,348.75
2018-06-01T07:11:45.486Z,348.75
2018-06-01T07:12:45.515Z,343.13
2018-06-01T07:13:45.548Z,343.13
2018-06-01T07:14:45.576Z,343.13
2018-06-01T07:15:45.606Z,343.13
2018-06-01T07:16:45.632Z,343.13
2018-06-01T07:17:45.667Z,343.13
2018-06-01T07:18:45.694Z,343.13
2018-06-01T07:19:45.719Z,343.13
2018-06-01T07:20:45.747Z,343.13
2018-06-01T07:21:45.782Z,343.13
2018-06-01T07:22:45.810Z,343.13
2018-06-01T07:23:45.844Z,343.13
2018-06-01T07:24:45.868Z,343.13
2018-06-01T07:25:45.898Z,348.75
2018-06-01T07:26:45.929Z,348.75
2018-06-01T07:27:46.034Z,348.75
2018-06-01T07:28:45.991Z,348.75
2018-06-01T07:29:46.013Z,354.38
2018-06-01T07:30:46.044Z,354.38
2018-06-01T07:31:46.073Z,354.38
2018-06-01T07:32:46.104Z,354.38
2018-06-01T07:33:46.149Z,354.38
2018-06-01T07:34:46.161Z,360.00
2018-06-01T07:35:46.193Z,360.00
2018-06-01T07:36:46.222Z,360.00
2018-06-01T07:37:46.251Z,365.63
2018-06-01T07:38:46.293Z,360.00
2018-06-01T07:39:46.312Z,365.63
2018-06-01T07:40:46.348Z,365.63
2018-06-01T07:41:46.374Z,365.63
2018-06-01T07:42:46.402Z,371.25
2018-06-01T07:43:46.431Z,371.25
2018-06-01T07:44:46.458Z,371.25
2018-06-01T07:45:46.492Z,376.88
2018-06-01T07:46:46.542Z,376.88
2018-06-01T07:47:46.553Z,376.88
2018-06-01T07:48:46.586Z,376.88
2018-06-01T07:49:46.608Z,382.50
2018-06-01T07:50:46.642Z,382.50
2018-06-01T07:51:46.672Z,382.50
2018-06-01T07:52:46.703Z,382.50
2018-06-01T07:53:46.732Z,388.13
2018-06-01T07:54:46.756Z,388.13
2018-06-01T07:55:46.791Z,388.13
2018-06-01T07:56:46.825Z,388.13
2018-06-01T07:57:46.851Z,393.75
2018-06-01T07:58:46.880Z,388.13
2018-06-01T07:59:46.909Z,388.13
2018-06-01T08:00:46.939Z,388.13
2018-06-01T08:01:46.975Z,388.13
2018-06-01T08:02:46.998Z,393.75
2018-06-01T08:03:47.031Z,393.75
2018-06-01T08:04:47.057Z,393.75
2018-06-01T08:05:47.092Z,393.75
2018-06-01T08:06:47.117Z,399.38
2018-06-01T08:07:47.157Z,399.38
2018-06-01T08:08:47.179Z,399.38
2018-06-01T08:09:47.211Z,410.63
2018-06-01T08:10:47.245Z,405.00
2018-06-01T08:11:47.269Z,405.00
2018-06-01T08:12:47.300Z,410.63
2018-06-01T08:13:47.332Z,405.00
2018-06-01T08:14:47.418Z,405.00
2018-06-01T08:15:47.387Z,405.00
2018-06-01T08:16:47.421Z,410.63
2018-06-01T08:17:47.448Z,410.63
2018-06-01T08:18:47.478Z,410.63
2018-06-01T08:19:47.506Z,410.63
2018-06-01T08:20:47.539Z,416.25
2018-06-01T08:21:47.566Z,416.25
2018-06-01T08:22:47.603Z,416.25
2018-06-01T08:23:47.619Z,416.25
2018-06-01T08:24:47.659Z,416.25
2018-06-01T08:25:47.681Z,421.88
2018-06-01T08:26:47.720Z,421.88
2018-06-01T08:27:47.750Z,421.88
2018-06-01T08:28:47.772Z,421.88
2018-06-01T08:29:47.800Z,427.50
2018-06-01T08:30:47.837Z,433.13
2018-06-01T08:31:47.873Z,427.50
2018-06-01T08:32:47.895Z,421.88
2018-06-01T08:33:47.928Z,427.50
2018-06-01T08:34:47.956Z,427.50
2018-06-01T08:35:47.989Z,433.13
2018-06-01T08:36:48.016Z,427.50
2018-06-01T08:37:48.049Z,427.50
2018-06-01T08:38:48.074Z,433.13
2018-06-01T08:39:48.114Z,433.13
2018-06-01T08:40:48.142Z,438.75
2018-06-01T08:41:48.168Z,438.75
2018-06-01T08:42:48.195Z,444.38
2018-06-01T08:43:48.225Z,438.75
2018-06-01T08:44:48.254Z,438.75
2018-06-01T08:45:48.285Z,438.75
2018-06-01T08:46:48.315Z,444.38
2018-06-01T08:47:48.348Z,444.38
2018-06-01T08:48:48.374Z,444.38
2018-06-01T08:49:48.404Z,444.38
2018-06-01T08:50:48.436Z,450.00
2018-06-01T08:51:48.471Z,444.38
2018-06-01T08:52:48.498Z,444.38
2018-06-01T08:53:48.525Z,444.38
2018-06-01T08:54:48.555Z,455.63
2018-06-01T08:55:48.584Z,450.00
2018-06-01T08:56:48.614Z,450.00
2018-06-01T08:57:48.648Z,450.00
2018-06-01T08:58:48.675Z,455.63
2018-06-01T08:59:48.708Z,461.25
2018-06-01T09:00:48.760Z,455.63
2018-06-01T09:01:48.763Z,455.63
2018-06-01T09:02:48.804Z,455.63
2018-06-01T09:03:48.828Z,466.88
2018-06-01T09:04:48.860Z,461.25
2018-06-01T09:05:48.890Z,461.25
2018-06-01T09:06:48.917Z,461.25
2018-06-01T09:07:48.947Z,461.25
2018-06-01T09:08:48.979Z,461.25
2018-06-01T09:09:49.008Z,466.88
2018-06-01T09:10:49.045Z,466.88
2018-06-01T09:11:49.073Z,466.88
2018-06-01T09:12:49.100Z,466.88
2018-06-01T09:13:49.130Z,472.50
2018-06-01T09:14:49.166Z,472.50
2018-06-01T09:15:49.196Z,478.13
2018-06-01T09:16:49.285Z,478.13
2018-06-01T09:17:49.253Z,483.75
2018-06-01T09:18:49.284Z,483.75
2018-06-01T09:19:49.338Z,483.75
2018-06-01T09:20:49.342Z,489.38
2018-06-01T09:21:49.378Z,489.38
2018-06-01T09:22:49.406Z,495.00
2018-06-01T09:23:49.436Z,495.00
2018-06-01T09:24:49.468Z,500.63
2018-06-01T09:25:49.493Z,495.00
2018-06-01T09:26:49.527Z,500.63
2018-06-01T09:27:49.558Z,506.25
2018-06-01T09:28:49.587Z,506.25
2018-06-01T09:29:49.635Z,511.88
2018-06-01T09:30:49.646Z,511.88
2018-06-01T09:31:49.677Z,517.50
2018-06-01T09:32:49.708Z,517.50
2018-06-01T09:33:49.740Z,517.50
2018-06-01T09:34:49.775Z,523.13
2018-06-01T09:35:49.805Z,523.13
2018-06-01T09:36:49.842Z,528.75
2018-06-01T09:37:49.856Z,528.75
2018-06-01T09:38:49.893Z,528.75
2018-06-01T09:39:49.926Z,534.38
2018-06-01T09:40:49.957Z,534.38
2018-06-01T09:41:49.987Z,540.00
2018-06-01T09:42:50.022Z,540.00
2018-06-01T09:43:50.043Z,545.63
2018-06-01T09:44:50.076Z,551.25
2018-06-01T09:45:50.112Z,551.25
2018-06-01T09:46:50.140Z,556.88
2018-06-01T09:47:50.172Z,556.88
2018-06-01T09:48:50.203Z,562.50
2018-06-01T09:49:50.226Z,562.50
2018-06-01T09:50:50.256Z,579.38
2018-06-01T09:51:50.291Z,568.13
2018-06-01T09:52:50.316Z,573.75
2018-06-01T09:53:50.350Z,573.75
2018-06-01T09:54:50.381Z,573.75
2018-06-01T09:55:50.416Z,585.00
2018-06-01T09:56:50.446Z,579.38
2018-06-01T09:57:50.477Z,585.00
2018-06-01T09:58:50.505Z,585.00
2018-06-01T09:59:50.530Z,590.63
2018-06-01T10:00:50.560Z,596.25
2018-06-01T10:01:50.596Z,596.25
2018-06-01T10:02:50.631Z,601.88
2018-06-01T10:03:50.659Z,601.88
2018-06-01T10:04:50.685Z,613.13
2018-06-01T10:05:50.725Z,613.13
2018-06-01T10:06:50.752Z,618.75
2018-06-01T10:07:50.789Z,624.38
2018-06-01T10:08:50.811Z,624.38
2018-06-01T10:09:50.842Z,635.63
2018-06-01T10:10:50.881Z,641.25
2018-06-01T10:11:50.909Z,641.25
2018-06-01T10:12:51.148Z,646.88
2018-06-01T10:13:50.966Z,646.88
2018-06-01T10:14:50.996Z,652.50
2018-06-01T10:15:51.030Z,658.13
2018-06-01T10:16:51.060Z,663.75
2018-06-01T10:17:51.111Z,669.38
2018-06-01T10:18:51.119Z,675.00
2018-06-01T10:19:51.158Z,680.63
2018-06-01T10:20:51.180Z,686.25
2018-06-01T10:21:51.221Z,691.88
2018-06-01T10:22:51.258Z,697.50
2018-06-01T10:23:51.274Z,703.13
2018-06-01T10:24:51.304Z,703.13
2018-06-01T10:25:51.342Z,703.13
2018-06-01T10:26:51.373Z,720.00
2018-06-01T10:27:51.397Z,731.25
2018-06-01T10:28:51.433Z,731.25
2018-06-01T10:29:51.461Z,736.88
2018-06-01T10:30:51.494Z,748.13
2018-06-01T10:31:51.523Z,759.38
2018-06-01T10:32:51.562Z,770.63
2018-06-01T10:33:51.590Z,776.25
2018-06-01T10:34:51.623Z,793.13
2018-06-01T10:35:51.656Z,793.13
2018-06-01T10:36:51.678Z,804.38
2018-06-01T10:37:51.713Z,821.25
2018-06-01T10:38:51.746Z,826.88
2018-06-01T10:39:51.775Z,843.75
2018-06-01T10:40:51.804Z,849.38
2018-06-01T10:41:51.840Z,860.63
2018-06-01T10:42:51.869Z,866.25
2018-06-01T10:43:51.904Z,877.50
2018-06-01T10:44:51.930Z,877.50
2018-06-01T10:45:51.969Z,883.13
2018-06-01T10:46:51.994Z,888.75
2018-06-01T10:47:52.026Z,900.00
2018-06-01T10:48:52.059Z,900.00
2018-06-01T10:49:52.093Z,905.63
2018-06-01T10:50:52.119Z,933.75
2018-06-01T10:51:52.151Z,967.50
2018-06-01T10:52:52.180Z,1001.25
2018-06-01T10:53:52.221Z,1040.63
2018-06-01T10:54:52.247Z,1068.75
2018-06-01T10:55:52.281Z,1113.75
2018-06-01T10:56:52.308Z,1147.50
2018-06-01T10:57:52.336Z,1209.38
2018-06-01T10:58:52.368Z,1276.88
2018-06-01T10:59:52.401Z,1389.38
2018-06-01T11:00:52.432Z,1558.13
2018-06-01T11:01:52.470Z,1951.88
2018-06-01T11:02:52.498Z,2345.63
2018-06-01T11:03:52.543Z,2407.50
2018-06-01T11:04:52.562Z,2446.88
2018-06-01T11:05:52.602Z,2452.50
2018-06-01T11:06:52.629Z,2486.25
2018-06-01T11:07:52.668Z,2525.63
2018-06-01T11:08:52.695Z,2553.75
2018-06-01T11:09:52.729Z,2576.25
2018-06-01T11:10:52.761Z,2632.50
2018-06-01T11:11:52.795Z,2632.50
2018-06-01T11:12:52.829Z,2626.88
2018-06-01T11:13:52.861Z,2570.63
2018-06-01T11:14:52.896Z,2570.63
2018-06-01T11:15:52.938Z,2694.38
2018-06-01T11:16:52.977Z,2677.50
2018-06-01T11:17:53.002Z,2688.75
2018-06-01T11:18:53.039Z,2716.88
2018-06-01T11:19:53.077Z,2728.13
2018-06-01T11:20:53.115Z,2812.50
2018-06-01T11:21:53.150Z,2851.88
2018-06-01T11:22:53.193Z,2919.38
2018-06-01T11:23:53.220Z,2981.25
2018-06-01T11:24:53.258Z,2970.00
2018-06-01T11:25:53.292Z,2936.25
2018-06-01T11:26:53.333Z,2874.38
2018-06-01T11:27:53.367Z,2835.00
2018-06-01T11:28:53.402Z,2846.25
2018-06-01T11:29:53.441Z,2885.63
2018-06-01T11:30:53.478Z,2880.00
2018-06-01T11:31:53.517Z,2941.88
2018-06-01T11:32:53.552Z,3054.38
2018-06-01T11:33:53.596Z,3076.88
2018-06-01T11:34:53.627Z,2964.38
2018-06-01T11:35:53.663Z,2981.25
2018-06-01T11:36:53.705Z,2947.50
2018-06-01T11:37:53.749Z,2700.00
2018-06-01T11:38:53.779Z,2913.75
2018-06-01T11:39:53.827Z,3015.00
2018-06-01T11:40:53.855Z,3195.00
2018-06-01T11:41:53.902Z,3352.50
2018-06-01T11:42:53.931Z,3425.63
2018-06-01T11:43:53.971Z,3346.88
2018-06-01T11:44:54.006Z,3301.88
2018-06-01T11:45:54.054Z,3341.25
2018-06-01T11:46:54.092Z,3251.25
2018-06-01T11:47:54.125Z,3268.13
2018-06-01T11:48:54.166Z,3296.25
2018-06-01T11:49:54.211Z,3195.00
2018-06-01T11:50:54.252Z,3245.63
2018-06-01T11:51:54.289Z,3318.75
2018-06-01T11:52:54.321Z,2728.13
2018-06-01T11:53:54.363Z,3178.13
2018-06-01T11:54:54.401Z,2863.13
2018-06-01T11:55:54.440Z,3195.00
2018-06-01T11:56:54.475Z,3352.50
2018-06-01T11:57:54.520Z,3318.75
2018-06-01T11:58:54.558Z,3318.75
2018-06-01T11:59:54.600Z,3358.13
2018-06-01T12:00:54.639Z,3262.50
2018-06-01T12:01:54.683Z,2998.13
2018-06-01T12:02:54.716Z,2908.13
2018-06-01T12:03:54.758Z,2655.00
2018-06-01T12:04:54.795Z,2722.50
2018-06-01T12:05:54.832Z,3076.88
2018-06-01T12:06:54.871Z,3009.38
2018-06-01T12:07:54.915Z,3060.00
2018-06-01T12:08:54.961Z,3116.25
2018-06-01T12:09:54.995Z,3234.38
2018-06-01T12:10:55.078Z,3256.88
2018-06-01T12:11:55.073Z,3054.38
2018-06-01T12:12:55.110Z,3105.00
2018-06-01T12:13:55.156Z,2250.00
2018-06-01T12:14:55.190Z,2306.25
2018-06-01T12:15:55.238Z,2396.25
2018-06-01T12:16:55.275Z,2311.88
2018-06-01T12:17:55.312Z,2413.13
2018-06-01T12:18:55.356Z,2351.25
2018-06-01T12:19:55.394Z,2193.75
2018-06-01T12:20:55.431Z,2081.25
2018-06-01T12:21:55.465Z,2362.50
2018-06-01T12:22:55.521Z,2182.50
2018-06-01T12:23:55.555Z,2593.13
2018-06-01T12:24:55.586Z,2823.75
2018-06-01T12:25:55.621Z,2902.50
2018-06-01T12:26:55.665Z,3268.13
2018-06-01T12:27:55.700Z,3161.25
2018-06-01T12:28:55.738Z,3172.50
2018-06-01T12:29:55.777Z,2874.38
2018-06-01T12:30:55.816Z,2739.38
2018-06-01T12:31:55.859Z,2666.25
2018-06-01T12:32:55.893Z,2452.50
2018-06-01T12:33:55.933Z,2632.50
2018-06-01T12:34:55.971Z,3071.25
2018-06-01T12:35:56.009Z,3431.25
2018-06-01T12:36:56.057Z,3611.25
2018-06-01T12:37:56.088Z,3628.13